createdAt,value
2018-06-11T00:01:03.539Z,78.20
2018-06-11T00:03:08.271Z,78.87
2018-06-11T00:05:12.955Z,79.25
2018-06-11T00:07:17.706Z,78.45
2018-06-11T00:09:22.537Z,79.29
2018-06-11T00:11:27.165Z,79.37
2018-06-11T00:13:32.070Z,79.30
2018-06-11T00:15:36.742Z,79.55
2018-06-11T00:17:41.374Z,79.94
2018-06-11T00:19:46.053Z,80.26
2018-06-11T00:21:50.700Z,80.22
2018-06-11T00:23:55.391Z,80.50
2018-06-11T00:26:00.067Z,81.14
2018-06-11T00:28:05.267Z,80.07
2018-06-11T00:30:10.607Z,80.66
2018-06-11T00:32:15.333Z,80.29
2018-06-11T00:34:19.985Z,80.39
2018-06-11T00:36:24.599Z,80.47
2018-06-11T00:38:29.621Z,80.08
2018-06-11T00:40:34.304Z,80.10
2018-06-11T00:42:39.005Z,80.08
2018-06-11T00:44:43.885Z,79.94
2018-06-11T00:46:48.481Z,80.68
2018-06-11T00:48:53.245Z,80.16
2018-06-11T00:50:58.014Z,80.02
2018-06-11T00:53:02.665Z,79.66
2018-06-11T00:55:07.330Z,79.87
2018-06-11T00:57:12.098Z,80.42
2018-06-11T00:59:16.726Z,80.62
2018-06-11T01:01:21.367Z,80.11
2018-06-11T01:03:26.136Z,80.29
2018-06-11T01:05:30.836Z,80.65
2018-06-11T01:07:35.650Z,80.59
2018-06-11T01:09:40.299Z,81.65
2018-06-11T01:11:44.973Z,80.98
2018-06-11T01:13:49.595Z,81.19
2018-06-11T01:15:54.314Z,81.51
2018-06-11T01:17:59.009Z,80.41
2018-06-11T01:20:03.819Z,80.99
2018-06-11T01:22:08.546Z,80.76
2018-06-11T01:24:13.226Z,81.37
2018-06-11T01:26:17.914Z,80.97
2018-06-11T01:28:22.605Z,80.39
2018-06-11T01:30:27.245Z,80.84
2018-06-11T01:32:31.970Z,81.29
2018-06-11T01:34:36.703Z,81.04
2018-06-11T01:36:41.449Z,81.69
2018-06-11T01:38:46.089Z,81.53
2018-06-11T01:40:50.460Z,80.45
2018-06-11T01:42:55.253Z,80.76
2018-06-11T01:44:59.877Z,80.92
2018-06-11T01:47:04.590Z,80.71
2018-06-11T01:49:09.311Z,81.36
2018-06-11T01:51:14.003Z,81.12
2018-06-11T01:53:18.706Z,80.84
2018-06-11T01:55:23.182Z,81.34
2018-06-11T01:57:28.038Z,82.07
2018-06-11T01:59:32.936Z,81.45
2018-06-11T02:01:37.556Z,81.64
2018-06-11T02:03:42.232Z,82.04
2018-06-11T02:05:46.928Z,82.11
2018-06-11T02:07:51.578Z,81.74
2018-06-11T02:09:56.331Z,81.97
2018-06-11T02:12:00.672Z,81.10
2018-06-11T02:14:05.457Z,81.33
2018-06-11T02:16:10.319Z,81.94
2018-06-11T02:18:15.043Z,82.64
2018-06-11T02:20:19.768Z,82.77
2018-06-11T02:22:24.185Z,82.82
2018-06-11T02:24:28.817Z,82.20
2018-06-11T02:26:33.494Z,82.08
2018-06-11T02:28:38.118Z,82.48
2018-06-11T02:30:42.836Z,82.79
2018-06-11T02:32:47.503Z,83.06
2018-06-11T02:34:52.113Z,83.87
2018-06-11T02:36:56.750Z,82.77
2018-06-11T02:39:01.360Z,83.94
2018-06-11T02:41:06.093Z,83.25
2018-06-11T02:43:10.794Z,82.83
2018-06-11T02:45:15.517Z,82.74
2018-06-11T02:47:20.141Z,82.80
2018-06-11T02:49:24.525Z,84.34
2018-06-11T02:51:29.174Z,84.31
2018-06-11T02:53:33.827Z,84.04
2018-06-11T02:55:38.528Z,84.12
2018-06-11T02:57:43.221Z,83.79
2018-06-11T02:59:47.997Z,83.70
2018-06-11T03:01:52.721Z,84.00
2018-06-11T03:03:57.334Z,84.23
2018-06-11T03:06:02.006Z,84.31
2018-06-11T03:08:06.725Z,83.85
2018-06-11T03:10:11.367Z,84.60
2018-06-11T03:12:16.061Z,85.77
2018-06-11T03:14:20.749Z,85.02
2018-06-11T03:16:25.439Z,84.24
2018-06-11T03:18:30.166Z,84.24
2018-06-11T03:20:34.973Z,84.47
2018-06-11T03:22:39.662Z,84.50
2018-06-11T03:24:44.350Z,85.25
2018-06-11T03:26:49.095Z,84.88
2018-06-11T03:28:53.779Z,84.69
2018-06-11T03:30:58.393Z,84.08
2018-06-11T03:33:03.085Z,84.75
2018-06-11T03:35:07.797Z,84.59
2018-06-11T03:37:12.733Z,84.01
2018-06-11T03:39:17.451Z,83.94
2018-06-11T03:41:22.229Z,84.09
2018-06-11T03:43:26.858Z,84.38
2018-06-11T03:45:31.652Z,83.92
2018-06-11T03:47:36.269Z,84.55
2018-06-11T03:49:40.971Z,84.88
2018-06-11T03:51:45.662Z,84.89
2018-06-11T03:53:50.390Z,84.63
2018-06-11T03:55:55.165Z,85.70
2018-06-11T03:57:59.991Z,84.63
2018-06-11T04:00:04.773Z,84.55
2018-06-11T04:02:09.515Z,85.22
2018-06-11T04:04:14.249Z,84.42
2018-06-11T04:06:18.927Z,84.41
2018-06-11T04:08:23.579Z,84.23
2018-06-11T04:10:28.251Z,84.81
2018-06-11T04:12:32.934Z,84.82
2018-06-11T04:14:37.581Z,84.80
2018-06-11T04:16:42.295Z,84.37
2018-06-11T04:18:46.944Z,83.47
2018-06-11T04:20:51.639Z,84.24
2018-06-11T04:22:56.401Z,84.29
2018-06-11T04:25:00.986Z,83.56
2018-06-11T04:27:05.625Z,83.82
2018-06-11T04:29:10.391Z,84.02
2018-06-11T04:31:15.222Z,83.52
2018-06-11T04:33:19.875Z,83.55
2018-06-11T04:35:24.530Z,83.21
2018-06-11T04:37:29.173Z,83.12
2018-06-11T04:39:33.844Z,83.71
2018-06-11T04:41:38.599Z,83.49
2018-06-11T04:43:43.236Z,82.87
2018-06-11T04:45:47.885Z,83.14
2018-06-11T04:47:52.559Z,83.46
2018-06-11T04:49:57.318Z,83.32
2018-06-11T04:52:02.150Z,82.60
2018-06-11T04:54:06.992Z,82.28
2018-06-11T04:56:11.833Z,83.04
2018-06-11T04:58:16.588Z,82.78
2018-06-11T05:00:21.342Z,81.73
2018-06-11T05:02:26.192Z,81.70
2018-06-11T05:04:30.934Z,81.73
2018-06-11T05:06:35.831Z,82.09
2018-06-11T05:08:40.504Z,81.42
2018-06-11T05:10:45.183Z,81.29
2018-06-11T05:12:50.072Z,80.22
2018-06-11T05:14:54.946Z,79.67
2018-06-11T05:16:59.740Z,80.19
2018-06-11T05:19:04.486Z,80.26
2018-06-11T05:21:09.219Z,80.04
2018-06-11T05:23:14.168Z,79.21
2018-06-11T05:25:18.966Z,78.72
2018-06-11T05:27:23.675Z,79.23
2018-06-11T05:29:28.468Z,79.40
2018-06-11T05:31:33.250Z,79.34
2018-06-11T05:33:38.189Z,78.29
2018-06-11T05:35:43.453Z,78.78
2018-06-11T05:37:48.167Z,78.24
2018-06-11T05:39:52.899Z,77.74
2018-06-11T05:41:57.843Z,77.38
2018-06-11T05:44:02.673Z,78.13
2018-06-11T05:46:07.418Z,77.83
2018-06-11T05:48:12.091Z,77.47
2018-06-11T05:50:16.994Z,76.77
2018-06-11T05:52:21.652Z,76.63
2018-06-11T05:54:26.350Z,76.35
2018-06-11T05:56:31.088Z,76.51
2018-06-11T05:58:36.377Z,75.52
2018-06-11T06:00:41.155Z,76.48
2018-06-11T06:02:46.109Z,77.00
2018-06-11T06:04:51.130Z,77.26
2018-06-11T06:06:55.995Z,77.12
2018-06-11T06:09:00.800Z,76.68
2018-06-11T06:11:05.483Z,77.31
2018-06-11T06:13:10.308Z,76.28
2018-06-11T06:15:15.159Z,76.15
2018-06-11T06:17:19.943Z,76.89
2018-06-11T06:19:24.690Z,76.45
2018-06-11T06:21:29.495Z,76.09
2018-06-11T06:23:34.258Z,75.92
2018-06-11T06:25:39.246Z,75.77
2018-06-11T06:27:43.970Z,76.74
2018-06-11T06:29:48.703Z,77.29
2018-06-11T06:31:53.440Z,76.66
2018-06-11T06:33:58.226Z,76.60
2018-06-11T06:36:03.040Z,76.95
2018-06-11T06:38:07.887Z,77.65
2018-06-11T06:40:13.001Z,76.70
2018-06-11T06:42:17.705Z,77.18
2018-06-11T06:44:22.505Z,77.68
2018-06-11T06:46:27.243Z,76.99
2018-06-11T06:48:31.977Z,75.55
2018-06-11T06:50:36.695Z,75.42
2018-06-11T06:52:41.378Z,75.57
2018-06-11T06:54:46.047Z,75.37
2018-06-11T06:56:50.677Z,74.60
2018-06-11T06:58:55.473Z,73.46
2018-06-11T07:01:00.226Z,73.33
2018-06-11T07:03:05.038Z,73.57
2018-06-11T07:05:09.925Z,73.65
2018-06-11T07:07:14.724Z,73.39
2018-06-11T07:09:19.466Z,74.30
2018-06-11T07:11:24.175Z,73.27
2018-06-11T07:13:29.105Z,73.70
2018-06-11T07:15:33.899Z,74.08
2018-06-11T07:17:38.891Z,73.90
2018-06-11T07:19:43.718Z,73.84
2018-06-11T07:21:49.087Z,73.58
2018-06-11T07:23:53.959Z,72.32
2018-06-11T07:25:58.799Z,73.10
2018-06-11T07:28:03.497Z,72.65
2018-06-11T07:30:08.217Z,72.17
2018-06-11T07:32:13.000Z,73.10
2018-06-11T07:34:18.750Z,72.17
2018-06-11T07:36:23.604Z,72.24
2018-06-11T07:38:28.676Z,71.63
2018-06-11T07:40:34.014Z,71.58
2018-06-11T07:42:38.927Z,70.68
2018-06-11T07:44:43.757Z,71.34
2018-06-11T07:46:48.579Z,70.96
2018-06-11T07:48:53.594Z,71.07
2018-06-11T07:50:58.598Z,71.00
2018-06-11T07:53:03.515Z,71.56
2018-06-11T07:55:08.421Z,73.26
2018-06-11T07:57:13.125Z,71.73
2018-06-11T07:59:17.734Z,72.06
2018-06-11T08:01:22.532Z,71.86
2018-06-11T08:03:27.315Z,69.56
2018-06-11T08:05:32.088Z,69.53
2018-06-11T08:07:36.927Z,68.62
2018-06-11T08:09:41.740Z,69.78
2018-06-11T08:11:46.544Z,68.35
2018-06-11T08:13:51.254Z,68.08
2018-06-11T08:15:56.019Z,67.62
2018-06-11T08:18:00.758Z,66.79
2018-06-11T08:20:05.762Z,67.52
2018-06-11T08:22:10.589Z,67.72
2018-06-11T08:24:15.461Z,66.32
2018-06-11T08:26:20.460Z,67.03
2018-06-11T08:28:25.094Z,65.88
2018-06-11T08:30:29.877Z,65.99
2018-06-11T08:32:34.545Z,63.83
2018-06-11T08:34:39.318Z,64.47
2018-06-11T08:36:44.058Z,64.81
2018-06-11T08:38:48.911Z,65.20
2018-06-11T08:40:53.607Z,64.30
2018-06-11T08:42:58.295Z,63.40
2018-06-11T08:45:03.189Z,64.09
2018-06-11T08:47:07.904Z,65.26
2018-06-11T08:49:12.629Z,64.57
2018-06-11T08:51:17.805Z,62.41
2018-06-11T08:53:22.525Z,62.73
2018-06-11T08:55:27.294Z,62.08
2018-06-11T08:57:32.000Z,62.76
2018-06-11T08:59:36.715Z,64.17
2018-06-11T09:01:41.371Z,64.51
2018-06-11T09:03:46.162Z,61.94
2018-06-11T09:05:50.862Z,62.28
2018-06-11T09:07:55.770Z,61.90
2018-06-11T09:10:00.674Z,61.60
2018-06-11T09:12:05.555Z,62.08
2018-06-11T09:14:10.365Z,62.20
2018-06-11T09:16:15.370Z,62.23
2018-06-11T09:18:20.426Z,61.76
2018-06-11T09:20:25.360Z,62.72
2018-06-11T09:22:30.241Z,65.30
2018-06-11T09:24:35.118Z,63.09
2018-06-11T09:26:40.016Z,62.44
2018-06-11T09:28:44.772Z,61.57
2018-06-11T09:30:49.574Z,62.69
2018-06-11T09:32:54.489Z,62.35
2018-06-11T09:34:59.364Z,62.93
2018-06-11T09:37:04.104Z,62.01
2018-06-11T09:39:09.900Z,61.84
2018-06-11T09:41:15.018Z,61.94
2018-06-11T09:43:19.914Z,62.10
2018-06-11T09:45:24.748Z,61.03
2018-06-11T09:47:29.475Z,61.35
2018-06-11T09:49:34.143Z,62.18
2018-06-11T09:51:39.008Z,60.20
2018-06-11T09:53:43.927Z,61.45
2018-06-11T09:55:48.945Z,60.48
2018-06-11T09:57:53.792Z,62.09
2018-06-11T09:59:58.857Z,60.81
2018-06-11T10:02:03.894Z,61.71
2018-06-11T10:04:08.719Z,61.11
2018-06-11T10:06:13.713Z,61.22
2018-06-11T10:08:18.885Z,61.35
2018-06-11T10:10:23.672Z,61.57
2018-06-11T10:12:28.578Z,60.33
2018-06-11T10:14:33.408Z,60.00
2018-06-11T10:16:38.364Z,60.90
2018-06-11T10:18:43.185Z,61.09
2018-06-11T10:20:47.988Z,61.07
2018-06-11T10:22:52.898Z,60.00
2018-06-11T10:24:58.146Z,60.32
2018-06-11T10:27:02.824Z,59.45
2018-06-11T10:29:07.637Z,58.83
2018-06-11T10:31:13.397Z,59.04
2018-06-11T10:33:18.144Z,57.55
2018-06-11T10:35:22.811Z,57.89
2018-06-11T10:37:27.642Z,56.95
2018-06-11T10:39:32.372Z,57.57
2018-06-11T10:41:37.175Z,56.97
2018-06-11T10:43:42.048Z,57.55
2018-06-11T10:45:46.764Z,58.49
2018-06-11T10:47:52.186Z,56.47
2018-06-11T10:49:57.325Z,56.42
2018-06-11T10:52:02.433Z,56.82
2018-06-11T10:54:07.518Z,57.13
2018-06-11T10:56:12.267Z,56.80
2018-06-11T10:58:17.072Z,57.38
2018-06-11T11:00:21.801Z,57.36
2018-06-11T11:02:26.722Z,56.73
2018-06-11T11:04:31.461Z,56.06
2018-06-11T11:06:36.292Z,56.70
2018-06-11T11:08:41.159Z,56.27
2018-06-11T11:10:46.060Z,55.02
2018-06-11T11:12:50.832Z,55.98
2018-06-11T11:14:55.812Z,56.20
2018-06-11T11:17:00.591Z,55.28
2018-06-11T11:19:05.514Z,53.03
2018-06-11T11:21:10.280Z,54.07
2018-06-11T11:23:15.011Z,54.32
2018-06-11T11:25:19.934Z,53.32
2018-06-11T11:27:24.712Z,53.83
2018-06-11T11:29:29.457Z,54.68
2018-06-11T11:31:34.249Z,54.82
2018-06-11T11:33:39.291Z,55.27
2018-06-11T11:35:44.022Z,55.29
2018-06-11T11:37:49.134Z,54.52
2018-06-11T11:39:53.889Z,53.47
2018-06-11T11:41:58.743Z,53.22
2018-06-11T11:44:03.625Z,54.24
2018-06-11T11:46:08.454Z,53.58
2018-06-11T11:48:13.594Z,52.84
2018-06-11T11:50:18.623Z,53.50
2018-06-11T11:52:23.757Z,53.42
2018-06-11T11:54:29.048Z,53.87
2018-06-11T11:56:34.226Z,54.41
2018-06-11T11:58:39.181Z,54.03
2018-06-11T12:00:44.142Z,53.33
2018-06-11T12:02:49.039Z,53.34
2018-06-11T12:04:53.847Z,52.49
2018-06-11T12:06:58.641Z,52.52
2018-06-11T12:09:03.508Z,51.64
2018-06-11T12:11:08.440Z,52.38
2018-06-11T12:13:13.154Z,52.43
2018-06-11T12:15:17.876Z,52.96
2018-06-11T12:17:22.944Z,52.20
2018-06-11T12:19:27.797Z,52.25
2018-06-11T12:21:32.539Z,51.02
2018-06-11T12:23:37.515Z,52.24
2018-06-11T12:25:42.346Z,50.31
2018-06-11T12:27:47.614Z,50.34
2018-06-11T12:29:52.452Z,50.43
2018-06-11T12:31:57.722Z,49.58
2018-06-11T12:34:02.517Z,49.57
2018-06-11T12:36:07.638Z,49.40
2018-06-11T12:38:12.438Z,50.42
2018-06-11T12:40:17.201Z,49.27
2018-06-11T12:42:22.114Z,50.39
2018-06-11T12:44:27.114Z,51.54
2018-06-11T12:46:32.000Z,50.83
2018-06-11T12:48:36.796Z,51.03
2018-06-11T12:50:41.740Z,50.39
2018-06-11T12:52:46.739Z,50.03
2018-06-11T12:54:51.540Z,50.79
2018-06-11T12:56:56.342Z,49.31
2018-06-11T12:59:01.246Z,49.42
2018-06-11T13:01:06.055Z,48.76
2018-06-11T13:03:11.061Z,48.36
2018-06-11T13:05:16.008Z,48.03
2018-06-11T13:07:20.990Z,46.76
2018-06-11T13:09:25.987Z,46.89
2018-06-11T13:11:30.817Z,45.55
2018-06-11T13:13:35.610Z,46.07
2018-06-11T13:15:40.381Z,45.81
2018-06-11T13:17:45.245Z,45.72
2018-06-11T13:19:50.635Z,45.15
2018-06-11T13:21:55.598Z,45.08
2018-06-11T13:24:00.576Z,44.68
2018-06-11T13:26:05.424Z,43.56
2018-06-11T13:28:10.176Z,43.80
2018-06-11T13:30:14.845Z,43.08
2018-06-11T13:32:19.545Z,43.13
2018-06-11T13:34:24.346Z,42.45
2018-06-11T13:36:29.112Z,43.22
2018-06-11T13:38:33.932Z,42.95
2018-06-11T13:40:38.656Z,42.92
2018-06-11T13:42:43.509Z,43.49
2018-06-11T13:44:48.282Z,44.61
2018-06-11T13:46:53.425Z,44.78
2018-06-11T13:48:58.197Z,45.44
2018-06-11T13:51:03.036Z,43.95
2018-06-11T13:53:07.914Z,44.27
2018-06-11T13:55:12.651Z,44.32
2018-06-11T13:57:17.361Z,42.28
2018-06-11T13:59:22.087Z,43.87
2018-06-11T14:01:26.882Z,44.64
2018-06-11T14:03:31.683Z,44.67
2018-06-11T14:05:36.656Z,44.30
2018-06-11T14:07:41.412Z,43.25
2018-06-11T14:09:46.201Z,42.70
2018-06-11T14:11:50.955Z,42.82
2018-06-11T14:13:56.751Z,42.74
2018-06-11T14:16:01.668Z,43.13
2018-06-11T14:18:06.766Z,42.34
2018-06-11T14:20:11.517Z,43.04
2018-06-11T14:22:16.435Z,42.43
2018-06-11T14:24:21.251Z,41.03
2018-06-11T14:26:26.021Z,40.64
2018-06-11T14:28:30.807Z,41.70
2018-06-11T14:30:35.597Z,42.49
2018-06-11T14:34:52.783Z,41.66
2018-06-11T14:36:59.154Z,42.54
2018-06-11T14:39:07.243Z,42.68
2018-06-11T14:41:13.189Z,42.17
2018-06-11T14:43:18.915Z,41.58
2018-06-11T14:45:25.280Z,42.23
2018-06-11T14:47:32.489Z,42.49
2018-06-11T14:49:39.127Z,42.44
2018-06-11T14:51:45.558Z,41.23
2018-06-11T14:53:51.901Z,42.05
2018-06-11T14:56:02.007Z,42.72
2018-06-11T14:58:08.768Z,42.29
2018-06-11T15:00:15.310Z,43.13
2018-06-11T15:02:23.142Z,43.13
2018-06-11T15:04:28.815Z,42.26
2018-06-11T15:06:35.108Z,41.68
2018-06-11T15:08:41.290Z,41.84
2018-06-11T15:10:47.558Z,41.17
2018-06-11T15:12:54.143Z,42.87
2018-06-11T15:15:00.978Z,42.42
2018-06-11T15:17:08.190Z,42.58
2018-06-11T15:19:14.065Z,43.54
2018-06-11T15:21:19.429Z,43.25
2018-06-11T15:23:25.366Z,43.43
2018-06-11T15:25:31.936Z,43.18
2018-06-11T15:27:38.090Z,43.39
2018-06-11T15:29:44.254Z,44.09
2018-06-11T15:31:50.327Z,43.56
2018-06-11T15:33:56.067Z,42.35
2018-06-11T15:36:01.881Z,42.84
2018-06-11T15:38:08.149Z,42.56
2018-06-11T15:40:13.892Z,43.13
2018-06-11T15:42:20.544Z,44.07
2018-06-11T15:44:26.830Z,44.04
2018-06-11T15:46:32.785Z,44.32
2018-06-11T15:48:38.859Z,43.85
2018-06-11T15:50:49.744Z,43.72
2018-06-11T15:52:55.292Z,44.46
2018-06-11T15:55:01.186Z,45.61
2018-06-11T15:57:07.954Z,45.31
2018-06-11T15:59:23.199Z,45.59
2018-06-11T16:01:32.814Z,44.06
2018-06-11T16:03:46.638Z,43.86
2018-06-11T16:05:51.913Z,45.08
2018-06-11T16:07:57.562Z,44.87
2018-06-11T16:10:04.503Z,45.57
2018-06-11T16:12:12.276Z,46.20
2018-06-11T16:14:21.507Z,44.97
2018-06-11T16:16:32.065Z,45.40
2018-06-11T16:18:38.060Z,46.82
2018-06-11T16:20:44.150Z,46.39
2018-06-11T16:22:49.732Z,45.88
2018-06-11T16:24:56.784Z,46.04
2018-06-11T16:27:05.545Z,46.54
2018-06-11T16:29:13.036Z,45.98
2018-06-11T16:31:19.248Z,45.90
2018-06-11T16:33:26.609Z,46.16
2018-06-11T16:35:32.709Z,45.71
2018-06-11T16:37:45.337Z,45.60
2018-06-11T16:39:51.151Z,46.05
2018-06-11T16:41:58.351Z,46.51
2018-06-11T16:44:05.018Z,46.55
2018-06-11T16:46:11.936Z,46.64
2018-06-11T16:48:17.933Z,46.55
2018-06-11T16:50:24.882Z,47.24
2018-06-11T16:52:30.971Z,46.71
2018-06-11T16:54:38.499Z,46.99
2018-06-11T16:56:44.338Z,46.09
2018-06-11T16:58:51.986Z,46.83
2018-06-11T17:00:58.639Z,47.09
2018-06-11T17:03:05.843Z,47.10
2018-06-11T17:05:11.691Z,47.63
2018-06-11T17:07:17.683Z,48.21
2018-06-11T17:09:24.545Z,48.73
2018-06-11T17:11:31.255Z,48.40
2018-06-11T17:13:39.069Z,47.99
2018-06-11T17:15:46.688Z,49.48
2018-06-11T17:17:54.372Z,49.21
2018-06-11T17:20:00.406Z,49.23
2018-06-11T17:22:06.230Z,49.20
2018-06-11T17:24:11.778Z,50.60
2018-06-11T17:26:17.128Z,50.88
2018-06-11T17:28:23.467Z,50.49
2018-06-11T17:30:29.660Z,49.25
2018-06-11T17:32:35.476Z,49.84
2018-06-11T17:34:41.977Z,49.93
2018-06-11T17:36:48.165Z,49.72
2018-06-11T17:38:54.840Z,49.60
2018-06-11T17:41:00.877Z,49.94
2018-06-11T17:43:08.286Z,49.33
2018-06-11T17:45:14.264Z,49.23
2018-06-11T17:47:20.971Z,50.00
2018-06-11T17:49:28.168Z,49.33
2018-06-11T17:51:34.277Z,50.23
2018-06-11T17:53:40.412Z,50.18
2018-06-11T17:55:46.511Z,49.93
2018-06-11T17:57:52.043Z,50.88
2018-06-11T17:59:57.642Z,51.20
2018-06-11T18:02:04.122Z,51.20
2018-06-11T18:04:11.204Z,51.89
2018-06-11T18:06:16.691Z,51.54
2018-06-11T18:08:30.358Z,51.17
2018-06-11T18:10:36.245Z,51.67
2018-06-11T18:12:41.916Z,52.10
2018-06-11T18:14:48.924Z,52.29
2018-06-11T18:16:54.955Z,51.78
2018-06-11T18:19:00.947Z,51.80
2018-06-11T18:21:06.958Z,51.17
2018-06-11T18:23:12.899Z,52.30
2018-06-11T18:25:18.814Z,52.60
2018-06-11T18:27:31.073Z,53.03
2018-06-11T18:29:47.041Z,52.73
2018-06-11T18:32:03.762Z,52.58
2018-06-11T18:34:17.983Z,52.57
2018-06-11T18:36:25.806Z,53.24
2018-06-11T18:38:34.316Z,53.24
2018-06-11T18:40:46.139Z,53.59
2018-06-11T18:43:04.211Z,53.31
2018-06-11T18:45:17.884Z,53.21
2018-06-11T18:47:37.095Z,53.86
2018-06-11T18:49:55.853Z,53.27
2018-06-11T18:52:10.283Z,53.79
2018-06-11T18:54:31.180Z,54.52
2018-06-11T18:56:37.517Z,53.92
2018-06-11T18:58:43.415Z,53.96
2018-06-11T19:00:52.612Z,54.07
2018-06-11T19:03:00.920Z,54.55
2018-06-11T19:05:10.499Z,54.32
2018-06-11T19:07:27.978Z,54.88
2018-06-11T19:09:44.340Z,54.13
2018-06-11T19:11:54.458Z,54.66
2018-06-11T19:14:10.528Z,54.34
2018-06-11T19:16:18.578Z,54.31
2018-06-11T19:18:25.213Z,54.33
2018-06-11T19:20:30.775Z,55.46
2018-06-11T19:22:36.537Z,55.45
2018-06-11T19:24:43.415Z,55.23
2018-06-11T19:26:49.858Z,54.80
2018-06-11T19:28:55.686Z,54.46
2018-06-11T19:31:08.569Z,54.97
2018-06-11T19:33:14.463Z,55.08
2018-06-11T19:35:19.865Z,54.97
2018-06-11T19:37:25.826Z,55.57
2018-06-11T19:39:31.528Z,55.39
2018-06-11T19:41:37.222Z,55.35
2018-06-11T19:43:46.975Z,55.15
2018-06-11T19:45:53.466Z,55.33
2018-06-11T19:47:59.897Z,55.06
2018-06-11T19:50:07.095Z,55.83
2018-06-11T19:52:13.733Z,54.69
2018-06-11T19:54:26.477Z,55.45
2018-06-11T19:56:35.611Z,54.93
2018-06-11T19:58:41.465Z,54.70
2018-06-11T20:00:48.315Z,54.54
2018-06-11T20:02:53.521Z,55.00
2018-06-11T20:04:58.923Z,55.28
2018-06-11T20:07:05.562Z,54.73
2018-06-11T20:09:11.144Z,55.38
2018-06-11T20:11:20.339Z,55.24
2018-06-11T20:13:26.310Z,55.67
2018-06-11T20:15:32.513Z,55.67
2018-06-11T20:17:37.769Z,55.93
2018-06-11T20:19:44.468Z,55.70
2018-06-11T20:21:51.011Z,55.88
2018-06-11T20:23:59.316Z,55.47
2018-06-11T20:26:05.817Z,55.47
2018-06-11T20:28:12.497Z,55.79
2018-06-11T20:30:18.214Z,55.53
2018-06-11T20:32:24.420Z,55.48
2018-06-11T20:34:30.687Z,55.35
2018-06-11T20:36:39.740Z,56.06
2018-06-11T20:38:48.161Z,55.89
2018-06-11T20:40:53.636Z,56.31
2018-06-11T20:42:59.188Z,55.70
2018-06-11T20:45:05.016Z,55.83
2018-06-11T20:47:10.727Z,55.76
2018-06-11T20:49:15.975Z,55.90
2018-06-11T20:51:21.504Z,55.46
2018-06-11T20:53:27.075Z,55.99
2018-06-11T20:55:32.148Z,55.77
2018-06-11T20:57:37.900Z,56.19
2018-06-11T20:59:43.343Z,56.07
2018-06-11T21:01:54.460Z,56.29
2018-06-11T21:04:00.450Z,56.31
2018-06-11T21:06:06.134Z,55.74
2018-06-11T21:08:12.361Z,56.28
2018-06-11T21:10:19.033Z,56.44
2018-06-11T21:12:24.194Z,56.96
2018-06-11T21:14:29.646Z,56.34
2018-06-11T21:16:36.992Z,56.55
2018-06-11T21:18:42.314Z,56.73
2018-06-11T21:20:47.982Z,56.68
2018-06-11T21:22:53.129Z,57.17
2018-06-11T21:24:59.962Z,57.43
2018-06-11T21:27:05.254Z,57.87
2018-06-11T21:29:11.692Z,57.32
2018-06-11T21:31:16.917Z,57.21
2018-06-11T21:33:22.393Z,57.45
2018-06-11T21:35:27.844Z,57.51
2018-06-11T21:37:33.167Z,57.18
2018-06-11T21:39:37.932Z,57.61
2018-06-11T21:41:43.352Z,58.15
2018-06-11T21:43:48.531Z,58.09
2018-06-11T21:45:54.002Z,57.94
2018-06-11T21:47:59.085Z,58.82
2018-06-11T21:50:05.435Z,58.71
2018-06-11T21:52:11.411Z,58.96
2018-06-11T21:54:16.748Z,59.42
2018-06-11T21:56:21.928Z,59.75
2018-06-11T21:58:27.374Z,59.33
2018-06-11T22:00:32.202Z,59.14
2018-06-11T22:02:37.198Z,59.11
2018-06-11T22:04:42.565Z,59.01
2018-06-11T22:06:47.787Z,59.25
2018-06-11T22:08:52.797Z,60.04
2018-06-11T22:10:58.337Z,60.04
2018-06-11T22:13:03.625Z,60.24
2018-06-11T22:15:08.749Z,59.95
2018-06-11T22:17:14.001Z,61.04
2018-06-11T22:19:19.221Z,60.33
2018-06-11T22:21:25.420Z,61.23
2018-06-11T22:23:34.667Z,61.47
2018-06-11T22:25:41.667Z,61.69
2018-06-11T22:27:46.897Z,61.32
2018-06-11T22:29:51.935Z,61.70
2018-06-11T22:31:57.731Z,61.80
2018-06-11T22:34:04.540Z,62.62
2018-06-11T22:36:10.627Z,62.52
2018-06-11T22:38:17.562Z,62.06
2018-06-11T22:40:26.147Z,62.43
2018-06-11T22:42:34.567Z,62.50
2018-06-11T22:44:40.774Z,62.86
2018-06-11T22:46:48.989Z,62.23
2018-06-11T22:48:56.080Z,62.30
2018-06-11T22:51:02.203Z,62.65
2018-06-11T22:53:10.122Z,62.75
2018-06-11T22:55:16.371Z,63.34
2018-06-11T22:57:22.101Z,63.53
2018-06-11T22:59:28.760Z,63.46
2018-06-11T23:01:35.308Z,63.40
2018-06-11T23:03:42.038Z,62.84
2018-06-11T23:05:49.775Z,63.00
2018-06-11T23:07:55.630Z,64.04
2018-06-11T23:10:00.881Z,65.10
2018-06-11T23:12:05.829Z,65.21
2018-06-11T23:14:21.462Z,65.55
2018-06-11T23:16:28.067Z,65.97
2018-06-11T23:18:33.059Z,66.70
2018-06-11T23:20:42.377Z,66.91
2018-06-11T23:22:47.934Z,67.83
2018-06-11T23:24:53.880Z,66.93
2018-06-11T23:26:59.586Z,67.15
2018-06-11T23:29:04.514Z,67.07
2018-06-11T23:31:10.145Z,68.44
2018-06-11T23:33:16.623Z,68.11
2018-06-11T23:35:23.136Z,67.45
2018-06-11T23:37:29.241Z,68.56
2018-06-11T23:39:35.856Z,68.10
2018-06-11T23:41:44.556Z,69.52
2018-06-11T23:43:51.262Z,69.62
2018-06-11T23:45:57.448Z,68.91
2018-06-11T23:48:04.331Z,69.31
2018-06-11T23:50:09.840Z,70.22
2018-06-11T23:52:16.882Z,70.01
2018-06-11T23:54:21.735Z,70.71
2018-06-11T23:56:26.528Z,71.54
2018-06-11T23:58:31.355Z,70.60
